Terminal Aerodrome Forecast
Issued by NWS

Home | Current Version | Previous Version | Text Only | Print | Product List | Glossary On
Versions: 1 2 3 4 5 6 7 8 9 10 11 12
000
FTUS43 KEAX 221120
TAFMKC
TAF
KMKC 221120Z 2212/2312 07008KT P6SM VCSH OVC070
     FM221600 06010KT P6SM OVC070
     FM222200 03005KT P6SM BKN090=

USA.gov is the U.S. government's official web portal to all federal, state and local government web resources and services.